Time;durP1;ratioP1;P1;durP2;ratioP2;P2;SDS_P1;SDS_P2;PMS_P1;PMS_P2;Temp;Humidity;BMP_temperature;BMP_pressure;BME280_temperature;BME280_humidity;BME280_pressure;Samples;Min_cycle;Max_cycle;Signal;HPM_P1;HPM_P2
2023/06/01 00:02:15;;;;;;;;;;;;;;;29.71;34.64;94247.28;5011603;28;7341;-61
2023/06/01 00:04:41;;;;;;;;;;;;;;;29.74;35.58;94257.34;5007908;28;8705;-61
2023/06/01 00:07:10;;;;;;;;;;;;;;;29.74;35.85;94257.34;5013421;28;9084;-61
2023/06/01 00:09:38;;;;;;;;;;;;;;;29.75;34.96;94258.09;5022628;28;9000;-61
2023/06/01 00:12:05;;;;;;;;;;;;;;;29.74;35.04;94253.81;5020995;28;7271;-61
2023/06/01 00:14:35;;;;;;;;;;;;;;;29.73;34.93;94249.53;5012535;28;8783;-61
2023/06/01 00:17:02;;;;;;;;;;;;;;;29.71;36.03;94254.88;5022308;28;7183;-61
2023/06/01 00:19:31;;;;;;;;;;;;;;;29.72;35.22;94253.59;5017710;28;9353;-61
2023/06/01 00:21:57;;;;;;;;;;;;;;;29.70;34.86;94245.81;5008832;28;7236;-61
2023/06/01 00:24:26;;;;;;;;;;;;;;;29.69;35.45;94249.13;5022449;28;7286;-61
2023/06/01 00:26:52;;;;;;;;;;;;;;;29.70;35.03;94251.38;5014778;28;7320;-61
2023/06/01 00:29:26;;;;;;;;;;;;;;;29.69;35.28;94244.31;5026904;28;8924;-61
2023/06/01 00:31:55;;;;;;;;;;;;;;;29.69;35.85;94251.88;5007903;28;9418;-61
2023/06/01 00:34:21;;;;;;;;;;;;;;;29.67;34.78;94241.34;5019931;28;7124;-61
2023/06/01 00:36:50;;;;;;;;;;;;;;;29.68;35.77;94253.19;5018662;28;7116;-61
2023/06/01 00:39:19;;;;;;;;;;;;;;;29.67;35.25;94255.19;5010594;28;7028;-61
2023/06/01 00:41:50;;;;;;;;;;;;;;;29.66;35.44;94252.97;5029131;28;7572;-61
2023/06/01 00:44:21;;;;;;;;;;;;;;;29.65;34.88;94243.16;4997014;28;9231;-61
2023/06/01 00:46:47;;;;;;;;;;;;;;;29.64;35.36;94241.69;5036891;28;8997;-61
2023/06/01 00:49:18;;;;;;;;;;;;;;;29.65;35.33;94248.72;5009386;28;8778;-61
2023/06/01 00:51:47;;;;;;;;;;;;;;;29.64;35.03;94248.00;5013880;28;7034;-61
2023/06/01 00:54:17;;;;;;;;;;;;;;;29.64;35.03;94252.78;5035390;28;7433;-61
2023/06/01 00:57:14;;;;;;;;;;;;;;;29.62;35.35;94256.06;5027556;28;7206;-61
2023/06/01 00:59:41;;;;;;;;;;;;;;;29.64;35.12;94252.78;4935605;28;7260;-61
2023/06/01 01:02:08;;;;;;;;;;;;;;;29.63;35.01;94249.25;4964242;28;7171;-61
2023/06/01 01:04:37;;;;;;;;;;;;;;;29.60;35.52;94250.34;4931182;28;8708;-61
2023/06/01 01:07:21;;;;;;;;;;;;;;;29.62;34.90;94252.59;4933094;28;8732;-61
2023/06/01 01:10:24;;;;;;;;;;;;;;;29.62;35.39;94249.81;4938128;28;7249;-61
2023/06/01 01:13:26;;;;;;;;;;;;;;;29.61;35.69;94251.09;4933160;28;9603;-61
2023/06/01 01:16:24;;;;;;;;;;;;;;;29.62;35.79;94247.03;4922727;28;8451;-61
2023/06/01 01:19:13;;;;;;;;;;;;;;;29.59;35.53;94253.66;4929861;28;7516;-61
2023/06/01 01:21:50;;;;;;;;;;;;;;;29.59;35.52;94245.34;4908864;29;9089;-61
2023/06/01 01:24:53;;;;;;;;;;;;;;;29.59;35.96;94256.44;4928987;29;8757;-60
2023/06/01 01:28:03;;;;;;;;;;;;;;;29.56;35.79;94251.94;4930307;29;7250;-61
2023/06/01 01:30:31;;;;;;;;;;;;;;;29.55;34.95;94259.53;4933475;29;9098;-61
2023/06/01 01:33:03;;;;;;;;;;;;;;;29.54;35.30;94260.81;4933137;29;8955;-61
2023/06/01 01:35:53;;;;;;;;;;;;;;;29.54;35.39;94260.06;4949568;28;7066;-61
2023/06/01 01:38:19;;;;;;;;;;;;;;;29.53;35.61;94261.38;4972329;28;7042;-61
2023/06/01 01:40:56;;;;;;;;;;;;;;;29.49;35.64;94258.19;4975006;28;6997;-61
2023/06/01 01:43:23;;;;;;;;;;;;;;;29.52;34.95;94259.88;4973488;28;9159;-61
2023/06/01 01:46:22;;;;;;;;;;;;;;;29.51;35.88;94256.38;4976601;28;9575;-61
2023/06/01 01:49:42;;;;;;;;;;;;;;;29.51;35.82;94261.16;4963263;28;8736;-61
2023/06/01 01:52:19;;;;;;;;;;;;;;;29.47;35.48;94258.72;4969153;28;9011;-61
2023/06/01 01:54:56;;;;;;;;;;;;;;;29.47;35.20;94255.22;4955570;28;7368;-61
2023/06/01 01:57:24;;;;;;;;;;;;;;;29.48;35.27;94253.91;4965193;28;8701;-61
2023/06/01 02:00:07;;;;;;;;;;;;;;;29.47;35.77;94249.66;4968150;28;7039;-61
2023/06/01 02:02:45;;;;;;;;;;;;;;;29.49;35.31;94253.38;4971727;28;7492;-61
2023/06/01 02:05:20;;;;;;;;;;;;;;;29.49;34.87;94245.06;4955201;28;7196;-61
2023/06/01 02:07:58;;;;;;;;;;;;;;;29.47;35.69;94244.13;4971066;28;7231;-61
2023/06/01 02:10:26;;;;;;;;;;;;;;;29.47;35.29;94246.91;4968741;28;7287;-61
2023/06/01 02:12:52;;;;;;;;;;;;;;;29.45;35.03;94236.34;4985846;28;7164;-61
2023/06/01 02:15:20;;;;;;;;;;;;;;;29.44;35.41;94245.94;4980465;28;8664;-61
2023/06/01 02:17:59;;;;;;;;;;;;;;;29.45;35.80;94241.88;4979366;28;7848;-61
2023/06/01 02:20:36;;;;;;;;;;;;;;;29.44;35.89;94248.72;4962159;28;7200;-61
2023/06/01 02:23:02;;;;;;;;;;;;;;;29.44;35.30;94245.19;4979220;28;7142;-61
2023/06/01 02:25:30;;;;;;;;;;;;;;;29.44;35.23;94247.97;5008377;28;9055;-61
2023/06/01 02:27:56;;;;;;;;;;;;;;;29.43;35.50;94249.25;5015977;28;7003;-61
2023/06/01 02:30:22;;;;;;;;;;;;;;;29.43;34.93;94250.00;5031923;28;7205;-61
2023/06/01 02:32:48;;;;;;;;;;;;;;;29.41;35.75;94240.72;5031806;28;8688;-61
2023/06/01 02:35:14;;;;;;;;;;;;;;;29.41;35.12;94252.56;5019739;28;7238;-61
2023/06/01 02:37:40;;;;;;;;;;;;;;;29.41;34.86;94243.50;5027271;28;9140;-61
2023/06/01 02:40:11;;;;;;;;;;;;;;;29.41;35.64;94240.72;5008083;28;9629;-61
2023/06/01 02:42:40;;;;;;;;;;;;;;;29.41;35.51;94240.72;5042920;28;6975;-61
2023/06/01 02:45:15;;;;;;;;;;;;;;;29.40;36.15;94242.03;5014959;28;6992;-61
2023/06/01 02:47:42;;;;;;;;;;;;;;;29.38;35.64;94247.38;5017972;28;8139;-61
2023/06/01 02:50:25;;;;;;;;;;;;;;;29.36;35.32;94247.16;5022412;28;7099;-61
2023/06/01 02:53:13;;;;;;;;;;;;;;;29.38;35.63;94250.88;5026981;28;7260;-61
2023/06/01 02:56:15;;;;;;;;;;;;;;;29.38;35.69;94247.38;5012251;28;7259;-61
2023/06/01 02:58:42;;;;;;;;;;;;;;;29.38;35.94;94241.81;4939684;28;8994;-61
2023/06/01 03:01:12;;;;;;;;;;;;;;;29.37;35.42;94246.63;4937413;28;9077;-62
2023/06/01 03:03:40;;;;;;;;;;;;;;;29.37;35.60;94251.41;4957816;28;7293;-61
2023/06/01 03:06:25;;;;;;;;;;;;;;;29.34;36.21;94250.44;4932615;28;7224;-61
2023/06/01 03:09:12;;;;;;;;;;;;;;;29.36;36.23;94256.19;4933616;28;7267;-61
2023/06/01 03:11:57;;;;;;;;;;;;;;;29.36;35.56;94250.66;4933773;28;7451;-61
2023/06/01 03:14:36;;;;;;;;;;;;;;;29.35;35.35;94253.97;4971116;28;7384;-61
2023/06/01 03:17:10;;;;;;;;;;;;;;;29.35;35.98;94251.19;4934109;28;7528;-61
2023/06/01 03:19:54;;;;;;;;;;;;;;;29.34;35.36;94258.75;4942623;28;9142;-61
2023/06/01 03:22:32;;;;;;;;;;;;;;;29.33;35.81;94251.00;4969723;28;7135;-61
2023/06/01 03:25:06;;;;;;;;;;;;;;;29.32;35.39;94249.53;4954041;28;7807;-61
2023/06/01 03:27:33;;;;;;;;;;;;;;;29.30;35.41;94258.34;4956892;28;8230;-61
2023/06/01 03:30:25;;;;;;;;;;;;;;;29.30;36.37;94246.53;4930558;29;7264;-61
2023/06/01 03:32:51;;;;;;;;;;;;;;;29.26;35.24;94240.59;4973818;28;7260;-61
2023/06/01 03:35:22;;;;;;;;;;;;;;;29.29;35.35;94245.06;4991844;28;9211;-61
2023/06/01 03:37:50;;;;;;;;;;;;;;;29.26;35.30;94240.59;5017581;28;7018;-61
2023/06/01 03:40:37;;;;;;;;;;;;;;;29.28;36.29;94247.06;5025759;28;9422;-61
2023/06/01 03:43:11;;;;;;;;;;;;;;;29.29;35.84;94250.59;5008249;28;9434;-61
2023/06/01 03:45:37;;;;;;;;;;;;;;;29.29;35.45;94256.88;5019170;28;7210;-61
2023/06/01 03:48:04;;;;;;;;;;;;;;;29.28;35.35;94251.88;5022188;28;7068;-61
2023/06/01 03:50:39;;;;;;;;;;;;;;;29.26;35.79;94257.94;5021396;28;7477;-61
2023/06/01 03:53:15;;;;;;;;;;;;;;;29.29;35.59;94258.91;5031145;28;9465;-61
2023/06/01 03:55:44;;;;;;;;;;;;;;;29.28;35.54;94260.19;5010510;28;9586;-61
2023/06/01 03:58:20;;;;;;;;;;;;;;;29.26;35.40;94257.19;5018251;28;9171;-61
2023/06/01 04:00:49;;;;;;;;;;;;;;;29.25;35.38;94264.78;5010417;28;9588;-61
2023/06/01 04:03:30;;;;;;;;;;;;;;;29.24;35.81;94260.53;5012297;28;7058;-61
2023/06/01 04:06:17;;;;;;;;;;;;;;;29.25;35.93;94264.03;5014847;28;6988;-61
2023/06/01 04:08:50;;;;;;;;;;;;;;;29.26;35.15;94265.50;5026848;28;9070;-61
2023/06/01 04:11:20;;;;;;;;;;;;;;;29.23;35.91;94259.03;5019382;28;7024;-61
2023/06/01 04:13:59;;;;;;;;;;;;;;;29.25;35.74;94262.03;5031158;28;9290;-62
2023/06/01 04:17:00;;;;;;;;;;;;;;;29.26;34.91;94265.50;5018392;28;7255;-61
2023/06/01 04:19:27;;;;;;;;;;;;;;;29.26;35.55;94265.50;4952107;28;7265;-61
2023/06/01 04:22:03;;;;;;;;;;;;;;;29.26;36.24;94274.56;4954002;28;7640;-61
2023/06/01 04:24:28;;;;;;;;;;;;;;;29.23;36.04;94272.88;4940976;28;9121;-61
2023/06/01 04:26:58;;;;;;;;;;;;;;;29.24;35.21;94277.13;4933366;28;9409;-61
2023/06/01 04:29:39;;;;;;;;;;;;;;;29.22;36.20;94273.41;4942547;28;7240;-61
2023/06/01 04:32:09;;;;;;;;;;;;;;;29.23;35.90;94280.44;4953811;28;7416;-61
2023/06/01 04:34:39;;;;;;;;;;;;;;;29.24;35.09;94281.94;4930948;28;7633;-62
2023/06/01 04:37:21;;;;;;;;;;;;;;;29.24;35.24;94271.59;4935582;28;7153;-61
2023/06/01 04:40:13;;;;;;;;;;;;;;;29.24;35.45;94277.13;4953902;28;8835;-62
2023/06/01 04:42:56;;;;;;;;;;;;;;;29.24;36.06;94277.13;4935883;28;7049;-61
2023/06/01 04:45:52;;;;;;;;;;;;;;;29.22;35.31;94282.47;4934430;28;9314;-61
2023/06/01 04:48:47;;;;;;;;;;;;;;;29.25;36.21;94281.41;4933290;29;7153;-61
2023/06/01 04:51:19;;;;;;;;;;;;;;;29.23;35.76;94281.19;4936849;28;7266;-61
2023/06/01 04:53:51;;;;;;;;;;;;;;;29.26;36.06;94284.91;4936200;28;8224;-62
2023/06/01 04:56:29;;;;;;;;;;;;;;;29.24;36.17;94282.69;5007006;28;8891;-61
2023/06/01 04:59:10;;;;;;;;;;;;;;;29.26;36.11;94290.44;4992080;28;7068;-61
2023/06/01 05:01:39;;;;;;;;;;;;;;;29.25;36.19;94294.50;5003609;28;9121;-61
2023/06/01 05:04:26;;;;;;;;;;;;;;;29.25;36.12;94295.25;4988953;28;8764;-61
2023/06/01 05:07:10;;;;;;;;;;;;;;;29.28;36.75;94291.41;4990667;28;7247;-61
2023/06/01 05:09:42;;;;;;;;;;;;;;;29.32;36.90;94293.84;5001814;28;7043;-61
2023/06/01 05:12:27;;;;;;;;;;;;;;;29.30;36.16;94290.84;5008808;28;9051;-61
2023/06/01 05:15:11;;;;;;;;;;;;;;;29.31;35.66;94298.66;5002136;28;8923;-61
2023/06/01 05:17:50;;;;;;;;;;;;;;;29.29;35.93;94295.66;5008159;28;7217;-61
2023/06/01 05:20:47;;;;;;;;;;;;;;;29.27;35.82;94300.25;4989548;28;8107;-62
2023/06/01 05:23:25;;;;;;;;;;;;;;;29.28;36.66;94298.97;4889355;29;9130;-62
2023/06/01 05:26:05;;;;;;;;;;;;;;;29.24;36.64;94296.53;4906061;29;7251;-62
2023/06/01 05:28:35;;;;;;;;;;;;;;;29.24;36.46;94291.00;4892966;29;7276;-62
2023/06/01 05:31:02;;;;;;;;;;;;;;;29.25;37.50;94300.06;4891953;29;7295;-62
2023/06/01 05:33:31;;;;;;;;;;;;;;;29.24;37.15;94298.56;4886684;29;8953;-62
2023/06/01 05:35:58;;;;;;;;;;;;;;;29.23;37.35;94295.03;4908522;29;7527;-62
2023/06/01 05:38:36;;;;;;;;;;;;;;;29.24;36.36;94290.25;4909496;29;7038;-62
2023/06/01 05:41:33;;;;;;;;;;;;;;;29.26;36.38;94293.22;4896001;29;7011;-62
2023/06/01 05:44:17;;;;;;;;;;;;;;;29.24;37.04;94298.56;4912235;29;7250;-63
2023/06/01 05:46:43;;;;;;;;;;;;;;;29.25;36.32;94291.75;4946596;28;9309;-62
2023/06/01 05:49:14;;;;;;;;;;;;;;;29.23;36.99;94294.31;4916330;29;7160;-62
2023/06/01 05:51:40;;;;;;;;;;;;;;;29.25;36.64;94294.50;4936170;28;6948;-62
2023/06/01 05:54:09;;;;;;;;;;;;;;;29.26;37.23;94296.72;4920227;28;8741;-62
2023/06/01 05:56:37;;;;;;;;;;;;;;;29.27;36.91;94303.03;4916007;29;9327;-62
2023/06/01 05:59:11;;;;;;;;;;;;;;;29.29;36.34;94294.91;4940155;28;9028;-61
2023/06/01 06:01:37;;;;;;;;;;;;;;;29.30;36.95;94302.69;4985959;28;8726;-62
2023/06/01 06:04:05;;;;;;;;;;;;;;;29.28;37.10;94293.41;5004798;28;7855;-62
2023/06/01 06:06:53;;;;;;;;;;;;;;;29.31;37.05;94297.91;4996231;28;8742;-62
2023/06/01 06:09:34;;;;;;;;;;;;;;;29.30;36.11;94301.94;5010277;28;7273;-61
2023/06/01 06:12:11;;;;;;;;;;;;;;;29.32;36.46;94307.72;5003920;28;7633;-62
2023/06/01 06:14:39;;;;;;;;;;;;;;;29.31;36.46;94306.22;4989451;28;9008;-62
2023/06/01 06:17:07;;;;;;;;;;;;;;;29.32;36.76;94305.66;4993389;28;7307;-62
2023/06/01 06:19:49;;;;;;;;;;;;;;;29.31;36.57;94315.28;5002150;28;7161;-62
2023/06/01 06:22:21;;;;;;;;;;;;;;;29.32;36.37;94316.03;5006257;28;9554;-62
2023/06/01 06:25:13;;;;;;;;;;;;;;;29.29;36.71;94315.06;5027626;28;9670;-62
2023/06/01 06:27:39;;;;;;;;;;;;;;;29.32;36.62;94316.03;4996443;28;7276;-61
2023/06/01 06:30:26;;;;;;;;;;;;;;;29.33;36.98;94321.00;4997467;28;7460;-62
2023/06/01 06:32:56;;;;;;;;;;;;;;;29.31;36.29;94318.03;5003483;28;9826;-62
2023/06/01 06:35:23;;;;;;;;;;;;;;;29.33;36.18;94318.25;5002545;28;9080;-62
2023/06/01 06:38:08;;;;;;;;;;;;;;;29.34;36.44;94324.53;4990057;28;8223;-62
2023/06/01 06:40:53;;;;;;;;;;;;;;;29.34;37.01;94322.50;4996486;28;8623;-61
2023/06/01 06:43:48;;;;;;;;;;;;;;;29.34;36.51;94327.31;5011069;28;7053;-61
2023/06/01 06:46:45;;;;;;;;;;;;;;;29.31;36.27;94328.38;5010563;28;8796;-61
2023/06/01 06:49:27;;;;;;;;;;;;;;;29.32;35.89;94318.78;5003312;28;9771;-61
2023/06/01 06:52:13;;;;;;;;;;;;;;;29.31;36.20;94320.06;4993008;28;7208;-62
2023/06/01 06:54:52;;;;;;;;;;;;;;;29.32;35.94;94322.28;4997934;28;8741;-61
2023/06/01 06:57:20;;;;;;;;;;;;;;;29.35;36.15;94323.25;4990329;28;8812;-61
2023/06/01 06:59:54;;;;;;;;;;;;;;;29.34;35.87;94324.53;4988933;28;7068;-61
2023/06/01 07:02:26;;;;;;;;;;;;;;;29.33;36.48;94325.81;4994214;28;7278;-62
2023/06/01 07:04:54;;;;;;;;;;;;;;;29.33;35.87;94320.25;4972507;28;7608;-61
2023/06/01 07:07:22;;;;;;;;;;;;;;;29.31;35.85;94326.34;4952795;28;7180;-62
2023/06/01 07:10:08;;;;;;;;;;;;;;;29.32;35.51;94322.28;4971249;28;9406;-62
2023/06/01 07:12:44;;;;;;;;;;;;;;;29.34;35.78;94324.53;4953748;28;9423;-62
2023/06/01 07:15:29;;;;;;;;;;;;;;;29.34;36.76;94336.34;4953797;28;9108;-62
2023/06/01 07:17:55;;;;;;;;;;;;;;;29.34;35.85;94332.84;4971784;28;7045;-61
2023/06/01 07:20:30;;;;;;;;;;;;;;;29.34;36.54;94322.50;4955847;28;9110;-62
2023/06/01 07:23:26;;;;;;;;;;;;;;;29.35;35.63;94320.47;4969278;28;9153;-62
2023/06/01 07:25:54;;;;;;;;;;;;;;;29.34;36.63;94327.31;4945713;28;7245;-61
2023/06/01 07:28:26;;;;;;;;;;;;;;;29.32;35.59;94336.13;4967665;28;8722;-62
2023/06/01 07:30:53;;;;;;;;;;;;;;;29.33;36.47;94325.81;4936142;28;9425;-62
2023/06/01 07:33:28;;;;;;;;;;;;;;;29.32;35.66;94327.09;4951252;28;7639;-62
2023/06/01 07:35:56;;;;;;;;;;;;;;;29.32;36.42;94321.56;4966131;28;9425;-62
2023/06/01 07:38:45;;;;;;;;;;;;;;;29.32;36.37;94321.56;4950113;28;8729;-62
2023/06/01 07:41:24;;;;;;;;;;;;;;;29.31;36.07;94318.03;4951377;28;7048;-61
2023/06/01 07:44:25;;;;;;;;;;;;;;;29.32;36.39;94319.50;4949226;28;7193;-61
2023/06/01 07:47:25;;;;;;;;;;;;;;;29.35;36.27;94314.94;4936308;28;9202;-62
2023/06/01 07:50:28;;;;;;;;;;;;;;;29.34;36.30;94325.25;4883736;29;9738;-62
2023/06/01 07:53:18;;;;;;;;;;;;;;;29.33;36.61;94318.25;4838415;29;7056;-62
2023/06/01 07:56:04;;;;;;;;;;;;;;;29.33;36.39;94312.69;4826999;29;8733;-62
2023/06/01 07:58:45;;;;;;;;;;;;;;;29.38;36.01;94311.09;4845318;29;7118;-62
2023/06/01 08:01:12;;;;;;;;;;;;;;;29.38;36.46;94316.63;4823917;29;8247;-62
2023/06/01 08:03:43;;;;;;;;;;;;;;;29.37;36.38;94324.19;4813940;29;8311;-62
2023/06/01 08:06:23;;;;;;;;;;;;;;;29.39;36.60;94326.41;4815541;29;7170;-62
2023/06/01 08:09:00;;;;;;;;;;;;;;;29.41;37.02;94323.84;4811688;29;9043;-62
2023/06/01 08:11:26;;;;;;;;;;;;;;;29.40;36.87;94322.38;4827129;29;9161;-62
2023/06/01 08:14:08;;;;;;;;;;;;;;;29.42;36.84;94319.81;4810203;29;8772;-62
2023/06/01 08:17:22;;;;;;;;;;;;;;;29.42;35.97;94319.81;4823069;29;9432;-62
2023/06/01 08:20:09;;;;;;;;;;;;;;;29.44;36.82;94322.78;4856370;29;7167;-62
2023/06/01 08:22:40;;;;;;;;;;;;;;;29.42;36.14;94314.28;4831339;29;7095;-62
2023/06/01 08:25:15;;;;;;;;;;;;;;;29.44;36.40;94317.25;4852177;29;8449;-62
2023/06/01 08:27:42;;;;;;;;;;;;;;;29.44;36.72;94320.03;4889598;29;9362;-63
2023/06/01 08:30:08;;;;;;;;;;;;;;;29.42;36.54;94320.56;4933614;28;7020;-62
2023/06/01 08:33:03;;;;;;;;;;;;;;;29.45;37.44;94324.28;4924086;29;8995;-62
2023/06/01 08:35:41;;;;;;;;;;;;;;;29.47;37.21;94321.72;4909648;29;7339;-61
2023/06/01 08:38:32;;;;;;;;;;;;;;;29.47;36.66;94316.91;4911116;29;9434;-62
2023/06/01 08:41:14;;;;;;;;;;;;;;;29.48;37.12;94317.66;4913381;29;9006;-62
2023/06/01 08:43:55;;;;;;;;;;;;;;;29.48;36.62;94314.88;4882997;29;7048;-62
2023/06/01 08:46:29;;;;;;;;;;;;;;;29.47;36.74;94316.19;4894608;29;7481;-62
2023/06/01 08:48:58;;;;;;;;;;;;;;;29.49;36.61;94316.38;4891338;29;9005;-62
2023/06/01 08:51:32;;;;;;;;;;;;;;;29.48;36.99;94312.13;4894223;29;9019;-62
2023/06/01 08:54:02;;;;;;;;;;;;;;;29.51;36.63;94316.59;4889772;29;7064;-62
2023/06/01 08:56:35;;;;;;;;;;;;;;;29.51;37.29;94313.81;4907847;29;8938;-62
2023/06/01 08:59:01;;;;;;;;;;;;;;;29.53;36.42;94308.47;4932775;28;8745;-62
2023/06/01 09:01:27;;;;;;;;;;;;;;;29.53;36.65;94300.16;4933655;28;8254;-62
2023/06/01 09:04:02;;;;;;;;;;;;;;;29.53;37.27;94309.22;4926849;28;9065;-62
2023/06/01 09:06:44;;;;;;;;;;;;;;;29.55;37.26;94312.19;4936092;28;9539;-62
2023/06/01 09:09:16;;;;;;;;;;;;;;;29.56;37.01;94302.59;4931665;28;9009;-62
2023/06/01 09:12:17;;;;;;;;;;;;;;;29.58;37.65;94307.63;4961630;28;8744;-62
2023/06/01 09:14:44;;;;;;;;;;;;;;;29.59;36.88;94300.78;5031042;28;7246;-62
2023/06/01 09:17:25;;;;;;;;;;;;;;;29.59;36.38;94300.78;5008070;28;9091;-62
2023/06/01 09:20:27;;;;;;;;;;;;;;;29.60;36.35;94305.03;5012906;28;7357;-62
2023/06/01 09:23:06;;;;;;;;;;;;;;;29.61;36.94;94306.50;4949198;28;6979;-62
2023/06/01 09:26:12;;;;;;;;;;;;;;;29.62;36.68;94294.16;4951194;28;9336;-62
2023/06/01 09:29:06;;;;;;;;;;;;;;;29.61;36.74;94292.66;4914746;29;7259;-62
2023/06/01 09:31:51;;;;;;;;;;;;;;;29.60;37.27;94296.72;4908641;29;9438;-62
2023/06/01 09:34:26;;;;;;;;;;;;;;;29.61;36.59;94293.41;4932181;29;7254;-62
2023/06/01 09:36:55;;;;;;;;;;;;;;;29.62;37.74;94294.16;4949386;29;7058;-62
2023/06/01 09:39:52;;;;;;;;;;;;;;;29.63;37.11;94299.16;4911072;29;8758;-62
2023/06/01 09:42:40;;;;;;;;;;;;;;;29.65;37.17;94295.84;4902492;29;7169;-62
2023/06/01 09:45:37;;;;;;;;;;;;;;;29.65;37.77;94287.53;4911794;29;9051;-62
2023/06/01 09:48:20;;;;;;;;;;;;;;;29.64;36.66;94286.78;4909875;29;8708;-62
2023/06/01 09:50:47;;;;;;;;;;;;;;;29.66;36.83;94289.03;4926354;29;7040;-62
2023/06/01 09:53:21;;;;;;;;;;;;;;;29.67;37.63;94282.19;4930283;29;7195;-62
2023/06/01 09:56:14;;;;;;;;;;;;;;;29.69;37.08;94282.38;4888599;29;7306;-62
2023/06/01 09:58:57;;;;;;;;;;;;;;;29.68;37.70;94281.66;4913984;28;7290;-62
2023/06/01 10:01:30;;;;;;;;;;;;;;;29.70;37.38;94276.31;4970142;28;7049;-62
2023/06/01 10:04:08;;;;;;;;;;;;;;;29.68;36.81;94276.13;4961762;28;8738;-62
2023/06/01 10:06:54;;;;;;;;;;;;;;;29.70;37.82;94283.88;4967387;28;9497;-62
2023/06/01 10:09:22;;;;;;;;;;;;;;;29.70;36.72;94279.09;4945892;28;7241;-62
2023/06/01 10:11:59;;;;;;;;;;;;;;;29.73;37.52;94271.72;4966591;28;6993;-62
2023/06/01 10:14:25;;;;;;;;;;;;;;;29.74;37.63;94273.97;4970140;28;7077;-62
2023/06/01 10:16:53;;;;;;;;;;;;;;;29.73;37.11;94275.22;4954089;28;7180;-61
2023/06/01 10:19:21;;;;;;;;;;;;;;;29.72;36.86;94270.97;4999138;28;7306;-61
2023/06/01 10:21:50;;;;;;;;;;;;;;;29.72;36.76;94276.50;5009861;28;7091;-62
2023/06/01 10:24:19;;;;;;;;;;;;;;;29.73;37.38;94271.72;5005204;28;7236;-61
2023/06/01 10:26:51;;;;;;;;;;;;;;;29.75;37.22;94274.72;5034060;28;7214;-61
2023/06/01 10:29:18;;;;;;;;;;;;;;;29.74;36.88;94271.19;5008346;28;7694;-62
2023/06/01 10:31:45;;;;;;;;;;;;;;;29.75;37.42;94271.94;5023087;28;9249;-62
2023/06/01 10:34:45;;;;;;;;;;;;;;;29.77;37.12;94269.38;5010189;28;8976;-62
2023/06/01 10:37:24;;;;;;;;;;;;;;;29.77;37.37;94266.59;5005882;28;7668;-61
2023/06/01 10:39:54;;;;;;;;;;;;;;;29.79;37.26;94258.47;5021891;28;9140;-62
2023/06/01 10:42:25;;;;;;;;;;;;;;;29.79;37.54;94264.78;4999046;28;7403;-62
2023/06/01 10:44:51;;;;;;;;;;;;;;;29.78;36.45;94260.50;4994581;28;7143;-62
2023/06/01 10:47:22;;;;;;;;;;;;;;;29.79;37.41;94258.47;5030925;28;8640;-62
2023/06/01 10:49:58;;;;;;;;;;;;;;;29.79;36.72;94256.47;5037113;28;7084;-63
2023/06/01 10:52:41;;;;;;;;;;;;;;;29.79;37.13;94252.94;5024294;28;9071;-62
2023/06/01 10:55:17;;;;;;;;;;;;;;;29.82;37.00;94251.13;5035851;28;9333;-63
2023/06/01 10:57:50;;;;;;;;;;;;;;;29.80;37.18;94254.41;5012908;28;8505;-62
2023/06/01 11:00:40;;;;;;;;;;;;;;;29.81;37.15;94255.91;5031220;28;7117;-62
2023/06/01 11:03:42;;;;;;;;;;;;;;;29.83;36.33;94258.13;5027469;28;9237;-62
2023/06/01 11:06:27;;;;;;;;;;;;;;;29.83;36.51;94258.13;5014449;28;7040;-61
2023/06/01 11:09:05;;;;;;;;;;;;;;;29.82;37.00;94257.38;5012343;28;9017;-62
2023/06/01 11:12:02;;;;;;;;;;;;;;;29.84;36.51;94245.78;5009437;28;8987;-62
2023/06/01 11:14:34;;;;;;;;;;;;;;;29.84;36.47;94251.31;5015865;28;8345;-62
2023/06/01 11:17:28;;;;;;;;;;;;;;;29.85;36.18;94245.22;5028254;28;7216;-62
2023/06/01 11:20:20;;;;;;;;;;;;;;;29.87;36.78;94248.19;5004188;28;7594;-62
2023/06/01 11:22:48;;;;;;;;;;;;;;;29.88;36.20;94244.16;5005490;28;7270;-62
2023/06/01 11:25:27;;;;;;;;;;;;;;;29.89;37.02;94239.31;5014006;28;9068;-62
2023/06/01 11:27:54;;;;;;;;;;;;;;;29.91;37.05;94237.50;5025715;28;9356;-62
2023/06/01 11:30:26;;;;;;;;;;;;;;;29.89;36.56;94234.53;5012636;28;6965;-61
2023/06/01 11:33:23;;;;;;;;;;;;;;;29.91;37.06;94239.50;5028155;28;9092;-62
2023/06/01 11:36:00;;;;;;;;;;;;;;;29.92;37.12;94232.69;4965714;28;7696;-62
2023/06/01 11:39:02;;;;;;;;;;;;;;;29.94;36.82;94227.34;4948567;28;9142;-62
2023/06/01 11:41:38;;;;;;;;;;;;;;;29.96;36.53;94230.31;4951473;28;7427;-61
2023/06/01 11:44:18;;;;;;;;;;;;;;;29.97;37.15;94229.78;4954826;28;7034;-61
2023/06/01 11:46:53;;;;;;;;;;;;;;;29.97;37.14;94226.28;4951820;28;7486;-61
2023/06/01 11:49:21;;;;;;;;;;;;;;;30.00;36.73;94228.69;4950935;28;7496;-61
2023/06/01 11:52:11;;;;;;;;;;;;;;;30.02;37.17;94226.13;4953048;28;7271;-61
2023/06/01 11:54:40;;;;;;;;;;;;;;;29.99;36.34;94218.91;4958142;28;9128;-61
2023/06/01 11:57:16;;;;;;;;;;;;;;;30.03;36.65;94221.31;4951283;28;7877;-62
2023/06/01 11:59:59;;;;;;;;;;;;;;;30.06;36.57;94215.41;4968719;28;7558;-61
2023/06/01 12:02:29;;;;;;;;;;;;;;;30.07;36.63;94210.63;4964478;28;7362;-61
2023/06/01 12:05:08;;;;;;;;;;;;;;;30.07;36.60;94208.59;4966094;28;7234;-61
2023/06/01 12:07:55;;;;;;;;;;;;;;;30.06;37.27;94211.91;4965226;28;7147;-61
2023/06/01 12:10:22;;;;;;;;;;;;;;;30.06;36.54;94207.09;4952536;28;9077;-61
2023/06/01 12:12:49;;;;;;;;;;;;;;;30.04;36.31;94208.91;4995750;28;7096;-61
2023/06/01 12:15:20;;;;;;;;;;;;;;;30.02;36.48;94211.50;5006439;28;7269;-61
2023/06/01 12:17:54;;;;;;;;;;;;;;;30.00;36.16;94206.50;5024816;28;8977;-62
2023/06/01 12:20:42;;;;;;;;;;;;;;;30.03;36.00;94205.44;5011515;28;7116;-61
2023/06/01 12:23:16;;;;;;;;;;;;;;;30.00;36.18;94197.44;5030539;28;7253;-62
2023/06/01 12:25:58;;;;;;;;;;;;;;;29.99;36.85;94193.94;5009785;28;8278;-61
2023/06/01 12:28:29;;;;;;;;;;;;;;;30.00;36.71;94194.66;5012081;28;7045;-61
2023/06/01 12:31:15;;;;;;;;;;;;;;;30.01;36.33;94193.38;5009843;28;8672;-61
2023/06/01 12:33:50;;;;;;;;;;;;;;;30.01;36.35;94196.16;5009766;28;9446;-61
2023/06/01 12:36:42;;;;;;;;;;;;;;;30.02;36.74;94201.16;5007298;28;7012;-61
2023/06/01 12:39:09;;;;;;;;;;;;;;;29.98;37.07;94192.44;5001321;28;6993;-62
2023/06/01 12:41:51;;;;;;;;;;;;;;;30.01;36.58;94196.16;5019077;28;7445;-62
2023/06/01 12:44:20;;;;;;;;;;;;;;;30.03;36.63;94196.34;5024692;28;7164;-61
2023/06/01 12:47:12;;;;;;;;;;;;;;;30.02;35.90;94197.63;5006933;28;7364;-62
2023/06/01 12:50:08;;;;;;;;;;;;;;;30.02;37.23;94197.63;5011104;28;9029;-62
2023/06/01 12:52:42;;;;;;;;;;;;;;;30.04;36.27;94186.72;5010891;28;7883;-61
2023/06/01 12:55:28;;;;;;;;;;;;;;;30.06;37.28;94189.72;5010696;28;9030;-62
2023/06/01 12:57:57;;;;;;;;;;;;;;;30.09;36.53;94191.41;5005481;28;7691;-62
2023/06/01 13:00:24;;;;;;;;;;;;;;;30.06;36.42;94179.34;5013598;28;7728;-62
2023/06/01 13:02:52;;;;;;;;;;;;;;;30.08;36.51;94182.31;5023833;28;7104;-62
2023/06/01 13:05:42;;;;;;;;;;;;;;;30.07;36.22;94178.06;5011996;28;9285;-62
2023/06/01 13:08:29;;;;;;;;;;;;;;;30.12;35.96;94171.66;5021867;28;7443;-62
2023/06/01 13:11:06;;;;;;;;;;;;;;;30.14;34.76;94169.06;5021798;28;9371;-62
2023/06/01 13:13:40;;;;;;;;;;;;;;;30.18;35.55;94169.44;5010936;28;7187;-62
2023/06/01 13:16:22;;;;;;;;;;;;;;;30.22;34.55;94167.06;5031428;28;7278;-61
2023/06/01 13:18:50;;;;;;;;;;;;;;;30.27;34.45;94165.44;5042347;28;7496;-62
2023/06/01 13:21:25;;;;;;;;;;;;;;;30.31;35.16;94161.03;5024452;28;7209;-61
2023/06/01 13:23:51;;;;;;;;;;;;;;;30.31;34.83;94160.28;5016476;28;7374;-61
2023/06/01 13:26:22;;;;;;;;;;;;;;;30.34;34.48;94161.97;5011035;28;9079;-61
2023/06/01 13:29:07;;;;;;;;;;;;;;;30.36;34.88;94153.84;5022204;28;6964;-62
2023/06/01 13:31:41;;;;;;;;;;;;;;;30.38;34.79;94151.25;5002747;28;8643;-62
2023/06/01 13:34:22;;;;;;;;;;;;;;;30.40;34.82;94141.09;5041002;28;8162;-61
2023/06/01 13:37:22;;;;;;;;;;;;;;;30.42;35.30;94144.06;5012690;28;9528;-62
2023/06/01 13:39:53;;;;;;;;;;;;;;;30.43;35.17;94136.47;4963118;28;9009;-62
2023/06/01 13:42:30;;;;;;;;;;;;;;;30.45;34.71;94142.97;4986850;28;7238;-61
2023/06/01 13:44:57;;;;;;;;;;;;;;;30.41;33.86;94134.25;4954977;28;8647;-62
2023/06/01 13:47:22;;;;;;;;;;;;;;;30.43;33.08;94137.22;4968346;28;7201;-62
2023/06/01 13:50:01;;;;;;;;;;;;;;;30.43;33.61;94134.44;4970478;28;8986;-62
2023/06/01 13:52:27;;;;;;;;;;;;;;;30.46;33.31;94121.50;4969215;28;9028;-62